createdAt,value
2017-06-11T00:01:05.505Z,19.31
2017-06-11T00:02:15.787Z,19.31
2017-06-11T00:03:26.082Z,19.27
2017-06-11T00:04:36.357Z,19.27
2017-06-11T00:05:46.650Z,19.2
2017-06-11T00:06:56.627Z,19.23
2017-06-11T00:08:06.928Z,19.23
2017-06-11T00:09:17.239Z,19.19
2017-06-11T00:10:27.521Z,19.07
2017-06-11T00:11:37.806Z,19.15
2017-06-11T00:12:48.104Z,19.06
2017-06-11T00:13:58.083Z,19.09
2017-06-11T00:15:08.370Z,19.06
2017-06-11T00:16:18.671Z,19.15
2017-06-11T00:17:28.654Z,19.07
2017-06-11T00:18:39.009Z,19.09
2017-06-11T00:19:49.314Z,19.09
2017-06-11T00:20:59.291Z,19.06
2017-06-11T00:22:09.594Z,19.05
2017-06-11T00:23:19.898Z,19.05
2017-06-11T00:24:30.205Z,19.05
2017-06-11T00:25:40.179Z,19.07
2017-06-11T00:26:50.211Z,18.99
2017-06-11T00:28:00.495Z,19.12
2017-06-11T00:29:10.783Z,19.02
2017-06-11T00:30:21.074Z,19.05
2017-06-11T00:31:31.356Z,18.96
2017-06-11T00:32:41.628Z,18.94
2017-06-11T00:33:51.626Z,19.06
2017-06-11T00:35:01.900Z,18.96
2017-06-11T00:36:11.870Z,18.94
2017-06-11T00:37:21.873Z,18.93
2017-06-11T00:38:32.155Z,18.89
2017-06-11T00:39:42.436Z,18.93
2017-06-11T00:40:52.729Z,18.96
2017-06-11T00:42:03.029Z,18.97
2017-06-11T00:43:13.310Z,18.99
2017-06-11T00:44:23.589Z,18.97
2017-06-11T00:45:33.839Z,18.94
2017-06-11T00:46:44.108Z,19.05
2017-06-11T00:47:54.463Z,18.97
2017-06-11T00:49:04.125Z,18.94
2017-06-11T00:50:14.100Z,18.94
2017-06-11T00:51:24.389Z,18.94
2017-06-11T00:52:34.675Z,19.06
2017-06-11T00:53:44.962Z,18.93
2017-06-11T00:54:55.255Z,18.93
2017-06-11T00:56:05.539Z,18.9
2017-06-11T00:57:15.520Z,18.93
2017-06-11T00:58:25.803Z,18.91
2017-06-11T00:59:36.132Z,18.82
2017-06-11T01:00:45.796Z,18.87
2017-06-11T01:01:55.780Z,18.84
2017-06-11T01:03:06.061Z,18.86
2017-06-11T01:04:16.355Z,18.79
2017-06-11T01:05:26.386Z,18.71
2017-06-11T01:06:36.668Z,18.72
2017-06-11T01:07:46.651Z,18.76
2017-06-11T01:08:57.040Z,18.63
2017-06-11T01:10:07.324Z,18.68
2017-06-11T01:11:17.608Z,18.6
2017-06-11T01:12:27.894Z,18.66
2017-06-11T01:13:37.877Z,18.57
2017-06-11T01:14:48.160Z,18.66
2017-06-11T01:15:58.445Z,18.72
2017-06-11T01:17:08.483Z,18.57
2017-06-11T01:18:18.769Z,18.59
2017-06-11T01:19:28.440Z,18.51
2017-06-11T01:20:38.770Z,18.57
2017-06-11T01:21:48.742Z,18.53
2017-06-11T01:22:59.041Z,18.53
2017-06-11T01:24:09.343Z,18.56
2017-06-11T01:25:19.321Z,18.5
2017-06-11T01:26:29.302Z,18.53
2017-06-11T01:27:39.590Z,18.49
2017-06-11T01:28:49.882Z,18.44
2017-06-11T01:30:00.168Z,18.36
2017-06-11T01:31:10.443Z,18.32
2017-06-11T01:32:20.722Z,18.35
2017-06-11T01:33:31.023Z,18.24
2017-06-11T01:34:41.009Z,18.27
2017-06-11T01:35:50.996Z,18.31
2017-06-11T01:37:01.290Z,18.27
2017-06-11T01:38:11.270Z,18.39
2017-06-11T01:39:21.570Z,18.41
2017-06-11T01:40:31.906Z,18.39
2017-06-11T01:41:41.891Z,18.39
2017-06-11T01:42:52.168Z,18.26
2017-06-11T01:44:02.142Z,18.36
2017-06-11T01:45:12.438Z,18.24
2017-06-11T01:46:22.408Z,18.26
2017-06-11T01:47:32.691Z,18.29
2017-06-11T01:48:42.971Z,18.31
2017-06-11T01:49:53.251Z,18.14
2017-06-11T01:51:03.530Z,18.27
2017-06-11T01:52:13.825Z,18.2
2017-06-11T01:53:24.112Z,18.2
2017-06-11T01:54:34.084Z,18.2
2017-06-11T01:55:44.089Z,18.17
2017-06-11T01:56:54.382Z,18.23
2017-06-11T01:58:04.455Z,18.2
2017-06-11T01:59:14.741Z,18.2
2017-06-11T02:00:25.025Z,18.32
2017-06-11T02:01:35.006Z,18.31
2017-06-11T02:02:45.302Z,18.27
2017-06-11T02:03:55.638Z,18.29
2017-06-11T02:05:05.614Z,18.26
2017-06-11T02:06:15.888Z,18.42
2017-06-11T02:07:26.180Z,18.34
2017-06-11T02:08:36.467Z,18.26
2017-06-11T02:09:46.750Z,18.26
2017-06-11T02:10:57.034Z,18.16
2017-06-11T02:12:07.334Z,18.23
2017-06-11T02:13:17.646Z,18.17
2017-06-11T02:14:27.634Z,18.2
2017-06-11T02:15:37.620Z,18.17
2017-06-11T02:16:47.894Z,18.13
2017-06-11T02:17:58.179Z,18.2
2017-06-11T02:19:08.471Z,18.23
2017-06-11T02:20:18.758Z,18.26
2017-06-11T02:21:29.045Z,18.17
2017-06-11T02:22:39.332Z,18.19
2017-06-11T02:23:49.305Z,18.16
2017-06-11T02:24:59.576Z,18.17
2017-06-11T02:26:09.881Z,18.2
2017-06-11T02:27:20.254Z,18.17
2017-06-11T02:28:30.540Z,18.11
2017-06-11T02:29:40.513Z,18.19
2017-06-11T02:30:50.480Z,18.19
2017-06-11T02:32:00.478Z,18.16
2017-06-11T02:33:10.504Z,18.08
2017-06-11T02:34:20.475Z,18.1
2017-06-11T02:35:30.445Z,18.03
2017-06-11T02:36:40.422Z,18.1
2017-06-11T02:37:50.712Z,18.1
2017-06-11T02:39:00.376Z,18.1
2017-06-11T02:40:10.658Z,18.06
2017-06-11T02:41:20.956Z,18.05
2017-06-11T02:42:31.241Z,18.06
2017-06-11T02:43:41.529Z,18.1
2017-06-11T02:44:51.812Z,18.03
2017-06-11T02:46:01.855Z,18.06
2017-06-11T02:47:12.210Z,18.1
2017-06-11T02:48:22.560Z,18.11
2017-06-11T02:49:32.595Z,18.08
2017-06-11T02:50:42.673Z,18.03
2017-06-11T02:51:52.708Z,18.05
2017-06-11T02:53:02.741Z,18.03
2017-06-11T02:54:13.085Z,18.08
2017-06-11T02:55:23.417Z,18.03
2017-06-11T02:56:33.816Z,18.06
2017-06-11T02:57:43.536Z,18.03
2017-06-11T02:58:53.883Z,18.08
2017-06-11T03:00:04.239Z,18.17
2017-06-11T03:01:14.587Z,18.14
2017-06-11T03:32:54.468Z,15.45
2017-06-11T03:34:04.801Z,15.45
2017-06-11T03:35:15.141Z,15.47
2017-06-11T03:36:25.473Z,15.51
2017-06-11T03:37:35.816Z,15.63
2017-06-11T03:38:46.166Z,15.78
2017-06-11T03:39:56.571Z,15.83
2017-06-11T03:41:06.926Z,15.98
2017-06-11T03:42:17.280Z,16.22
2017-06-11T03:43:27.616Z,16.45
2017-06-11T03:44:38.005Z,16.47
2017-06-11T03:45:48.377Z,16.66
2017-06-11T03:46:58.409Z,16.82
2017-06-11T03:48:08.122Z,17.06
2017-06-11T03:49:18.163Z,17.25
2017-06-11T03:50:28.560Z,17.39
2017-06-11T03:51:38.895Z,17.63
2017-06-11T03:52:49.249Z,17.8
2017-06-11T03:53:59.618Z,17.86
2017-06-11T03:55:09.689Z,17.95
2017-06-11T03:56:20.081Z,18.06
2017-06-11T03:57:30.431Z,18.17
2017-06-11T03:58:40.773Z,18.2
2017-06-11T03:59:50.793Z,18.26
2017-06-11T04:01:00.823Z,18.5
2017-06-11T04:02:10.902Z,18.45
2017-06-11T04:03:20.949Z,18.63
2017-06-11T04:04:31.305Z,18.65
2017-06-11T04:05:41.656Z,18.75
2017-06-11T04:06:52.011Z,18.86
2017-06-11T04:08:02.361Z,18.86
2017-06-11T04:09:12.704Z,18.94
2017-06-11T04:10:23.048Z,19.02
2017-06-11T04:11:33.399Z,19.12
2017-06-11T04:12:43.425Z,19.25
2017-06-11T04:13:53.778Z,19.34
2017-06-11T04:15:04.137Z,19.4
2017-06-11T04:16:14.486Z,19.5
2017-06-11T04:17:24.850Z,20.05
2017-06-11T04:18:34.893Z,21.73
2017-06-11T04:19:45.340Z,23.78
2017-06-11T04:20:55.698Z,25.29
2017-06-11T04:22:05.738Z,26.41
2017-06-11T04:23:16.097Z,27.31
2017-06-11T04:24:26.443Z,28.23
2017-06-11T04:25:36.866Z,28.83
2017-06-11T04:26:47.221Z,29.43
2017-06-11T04:27:57.631Z,29.95
2017-06-11T04:29:07.980Z,30.34
2017-06-11T04:30:18.345Z,30.82
2017-06-11T04:31:28.432Z,31.31
2017-06-11T04:32:38.483Z,31.6
2017-06-11T04:33:48.530Z,31.86
2017-06-11T04:34:58.887Z,32.17
2017-06-11T04:36:09.224Z,32.46
2017-06-11T04:37:19.647Z,32.71
2017-06-11T04:38:29.687Z,32.94
2017-06-11T04:39:39.714Z,33.2
2017-06-11T04:40:49.766Z,33.41
2017-06-11T04:41:59.805Z,33.59
2017-06-11T04:43:10.160Z,33.73
2017-06-11T04:44:20.203Z,33.96
2017-06-11T04:45:30.555Z,34.03
2017-06-11T04:46:40.623Z,34.08
2017-06-11T04:47:50.662Z,34.26
2017-06-11T04:49:01.063Z,34.27
2017-06-11T04:50:11.414Z,34.33
2017-06-11T04:51:21.775Z,34.51
2017-06-11T04:52:32.138Z,34.54
2017-06-11T04:53:42.500Z,34.59
2017-06-11T04:54:52.863Z,34.56
2017-06-11T04:56:03.225Z,34.54
2017-06-11T04:57:13.580Z,34.59
2017-06-11T04:58:23.962Z,34.61
2017-06-11T04:59:34.002Z,34.67
2017-06-11T05:00:44.052Z,34.72
2017-06-11T05:01:54.394Z,34.79
2017-06-11T05:03:04.743Z,34.87
2017-06-11T05:04:15.086Z,34.83
2017-06-11T05:05:25.113Z,34.84
2017-06-11T05:06:35.151Z,34.81
2017-06-11T05:07:45.547Z,34.74
2017-06-11T05:08:55.903Z,34.67
2017-06-11T05:10:05.942Z,34.67
2017-06-11T05:11:15.977Z,34.54
2017-06-11T05:12:26.020Z,34.45
2017-06-11T05:13:36.409Z,34.43
2017-06-11T05:14:46.768Z,34.29
2017-06-11T05:15:57.117Z,34.33
2017-06-11T05:17:07.471Z,34.3
2017-06-11T05:18:17.873Z,34.36
2017-06-11T05:19:27.949Z,34.43
2017-06-11T05:20:37.990Z,34.29
2017-06-11T05:21:48.337Z,34.34
2017-06-11T05:22:58.059Z,34.37
2017-06-11T05:24:08.465Z,34.33
2017-06-11T05:25:18.830Z,34.32
2017-06-11T05:26:29.180Z,34.34
2017-06-11T05:27:39.540Z,34.49
2017-06-11T05:28:49.890Z,34.58
2017-06-11T05:30:00.288Z,34.71
2017-06-11T05:31:10.697Z,34.67
2017-06-11T05:32:20.415Z,34.64
2017-06-11T05:33:30.772Z,34.78
2017-06-11T05:34:40.815Z,34.78
2017-06-11T05:35:51.260Z,34.81
2017-06-11T05:37:01.616Z,34.86
2017-06-11T05:38:11.660Z,34.81
2017-06-11T05:39:22.060Z,34.69
2017-06-11T05:40:32.421Z,34.69
2017-06-11T05:41:42.825Z,34.55
2017-06-11T05:42:53.180Z,34.46
2017-06-11T05:44:03.242Z,34.37
2017-06-11T05:45:13.293Z,34.39
2017-06-11T05:46:23.641Z,34.41
2017-06-11T05:47:34.052Z,34.48
2017-06-11T05:48:44.420Z,34.43
2017-06-11T05:49:54.768Z,34.36
2017-06-11T05:51:05.136Z,34.39
2017-06-11T05:52:15.502Z,34.26
2017-06-11T05:53:25.901Z,34.14
2017-06-11T05:54:35.966Z,34.06
2017-06-11T05:55:46.311Z,33.97
2017-06-11T05:56:56.366Z,33.83
2017-06-11T05:58:06.723Z,33.69
2017-06-11T05:59:16.449Z,33.55
2017-06-11T06:00:26.491Z,33.23
2017-06-11T06:01:36.852Z,33.21
2017-06-11T06:02:46.924Z,33.02
2017-06-11T06:03:56.979Z,32.9
2017-06-11T06:05:07.013Z,32.74
2017-06-11T06:06:17.370Z,32.68
2017-06-11T06:07:27.084Z,32.61
2017-06-11T06:08:37.133Z,32.47
2017-06-11T06:09:47.174Z,32.46
2017-06-11T06:10:57.600Z,32.35
2017-06-11T06:12:07.956Z,32.32
2017-06-11T06:13:18.313Z,32.23
2017-06-11T06:14:28.658Z,32.12
2017-06-11T06:15:38.705Z,32.13
2017-06-11T06:16:49.112Z,32.06
2017-06-11T06:17:59.159Z,32.05
2017-06-11T06:19:09.569Z,31.82
2017-06-11T06:20:19.631Z,31.87
2017-06-11T06:21:29.686Z,31.7
2017-06-11T06:22:39.776Z,31.49
2017-06-11T06:23:50.119Z,31.3
2017-06-11T06:25:00.161Z,31.23
2017-06-11T06:26:10.555Z,31.08
2017-06-11T06:27:20.592Z,30.97
2017-06-11T06:28:30.953Z,30.86
2017-06-11T06:29:41.302Z,30.73
2017-06-11T06:30:51.353Z,30.73
2017-06-11T06:32:01.731Z,30.71
2017-06-11T06:33:11.765Z,30.6
2017-06-11T06:34:22.116Z,30.48
2017-06-11T06:35:31.849Z,30.47
2017-06-11T06:36:41.916Z,30.4
2017-06-11T06:37:52.277Z,30.16
2017-06-11T06:39:02.635Z,30.11
2017-06-11T06:40:12.999Z,30.03
2017-06-11T06:41:23.345Z,29.98
2017-06-11T06:42:33.698Z,29.77
2017-06-11T06:43:43.753Z,29.69
2017-06-11T06:44:54.122Z,29.63
2017-06-11T06:46:04.230Z,29.57
2017-06-11T06:47:14.577Z,29.47
2017-06-11T06:48:24.933Z,29.45
2017-06-11T06:49:34.976Z,29.42
2017-06-11T06:50:45.035Z,29.36
2017-06-11T06:51:55.390Z,29.15
2017-06-11T06:53:05.416Z,29.11
2017-06-11T06:54:15.777Z,29.03
2017-06-11T06:55:26.130Z,28.9
2017-06-11T06:56:36.499Z,28.88
2017-06-11T06:57:46.866Z,28.88
2017-06-11T06:58:56.611Z,28.8
2017-06-11T07:00:06.967Z,28.63
2017-06-11T07:01:17.325Z,28.67
2017-06-11T07:02:27.690Z,28.67
2017-06-11T07:03:38.101Z,28.7
2017-06-11T07:04:48.460Z,28.68
2017-06-11T07:05:58.821Z,28.68
2017-06-11T07:07:08.861Z,28.53
2017-06-11T07:08:19.209Z,28.46
2017-06-11T07:09:29.256Z,28.35
2017-06-11T07:10:39.619Z,28.31
2017-06-11T07:11:49.973Z,28.16
2017-06-11T07:13:00.030Z,28.05
2017-06-11T07:14:10.365Z,27.89
2017-06-11T07:15:20.155Z,27.71
2017-06-11T07:16:30.488Z,27.49
2017-06-11T07:17:40.833Z,27.38
2017-06-11T07:18:50.887Z,27.45
2017-06-11T07:20:00.932Z,27.36
2017-06-11T07:21:10.962Z,27.41
2017-06-11T07:22:21.327Z,27.41
2017-06-11T07:23:31.375Z,27.36
2017-06-11T07:24:41.719Z,27.3
2017-06-11T07:25:52.060Z,27.33
2017-06-11T07:27:02.481Z,27.28
2017-06-11T07:28:12.830Z,27.33
2017-06-11T07:29:22.864Z,27.33
2017-06-11T07:30:33.288Z,27.28
2017-06-11T07:31:43.656Z,27.33
2017-06-11T07:32:54.079Z,27.31
2017-06-11T07:34:04.448Z,27.41
2017-06-11T07:35:14.504Z,27.34
2017-06-11T07:36:24.863Z,27.52
2017-06-11T07:37:35.227Z,27.49
2017-06-11T07:38:45.641Z,27.55
2017-06-11T07:39:55.685Z,27.53
2017-06-11T07:41:05.723Z,27.57
2017-06-11T07:42:16.085Z,27.49
2017-06-11T07:43:26.438Z,27.49
2017-06-11T07:44:36.479Z,27.48
2017-06-11T07:45:46.852Z,27.48
2017-06-11T07:46:57.224Z,27.49
2017-06-11T07:48:06.950Z,27.66
2017-06-11T07:49:16.995Z,27.66
2017-06-11T07:50:27.523Z,27.68
2017-06-11T07:51:37.876Z,27.8
2017-06-11T07:52:47.921Z,27.84
2017-06-11T07:53:58.274Z,27.68
2017-06-11T07:55:08.626Z,27.74
2017-06-11T07:56:18.979Z,27.74
2017-06-11T07:57:29.331Z,27.72
2017-06-11T07:58:39.370Z,27.8
2017-06-11T07:59:49.717Z,27.76
2017-06-11T08:00:59.437Z,27.86
2017-06-11T08:02:09.539Z,27.84
2017-06-11T08:03:19.893Z,27.9
2017-06-11T08:04:30.250Z,27.98
2017-06-11T08:05:40.616Z,27.94
2017-06-11T08:06:50.969Z,27.94
2017-06-11T08:08:01.053Z,27.98
2017-06-11T08:09:11.087Z,28.08
2017-06-11T08:10:21.463Z,28.11
2017-06-11T08:11:31.810Z,28.18
2017-06-11T08:12:42.171Z,28.2
2017-06-11T08:13:51.963Z,28.2
2017-06-11T08:15:02.324Z,28.17
2017-06-11T08:16:12.669Z,28.18
2017-06-11T08:17:23.015Z,28.14
2017-06-11T08:18:33.358Z,28.11
2017-06-11T08:19:43.764Z,28.17
2017-06-11T08:20:54.129Z,28.16
2017-06-11T08:22:04.501Z,28.21
2017-06-11T08:23:14.858Z,28.35
2017-06-11T08:24:24.271Z,28.28
2017-06-11T08:25:34.384Z,28.3
2017-06-11T08:26:44.744Z,28.43
2017-06-11T08:27:54.782Z,28.45
2017-06-11T08:29:05.142Z,28.48
2017-06-11T08:30:15.198Z,28.6
2017-06-11T08:31:25.614Z,28.65
2017-06-11T08:32:35.977Z,28.65
2017-06-11T08:33:46.385Z,28.64
2017-06-11T08:34:56.728Z,28.64
2017-06-11T08:36:07.092Z,28.68
2017-06-11T08:37:17.532Z,28.73
2017-06-11T08:38:27.568Z,28.88
2017-06-11T08:39:37.614Z,28.88
2017-06-11T08:40:47.982Z,28.85
2017-06-11T08:41:58.015Z,28.97
2017-06-11T08:43:08.432Z,28.97
2017-06-11T08:44:18.483Z,29.06
2017-06-11T08:45:28.521Z,29.1
2017-06-11T08:46:38.572Z,29.17
2017-06-11T08:47:48.938Z,29.32
2017-06-11T08:48:59.363Z,29.29
2017-06-11T08:50:09.734Z,29.23
2017-06-11T08:51:20.087Z,29.4
2017-06-11T08:52:30.485Z,29.43
2017-06-11T08:53:40.841Z,29.33
2017-06-11T08:54:51.283Z,29.32
2017-06-11T08:56:01.630Z,29.33
2017-06-11T08:57:12.079Z,29.33
2017-06-11T08:58:22.130Z,29.32
2017-06-11T08:59:32.523Z,29.42
2017-06-11T09:00:42.883Z,29.51
2017-06-11T09:01:53.236Z,29.42
2017-06-11T09:03:03.608Z,29.43
2017-06-11T09:04:13.658Z,29.43
2017-06-11T09:05:24.064Z,29.61
2017-06-11T09:06:34.418Z,29.65
2017-06-11T09:07:44.485Z,29.65
2017-06-11T09:08:54.559Z,29.73
2017-06-11T09:10:04.604Z,29.81
2017-06-11T09:11:14.972Z,29.72
2017-06-11T09:12:25.476Z,29.79
2017-06-11T09:13:35.867Z,29.79
2017-06-11T09:14:45.918Z,29.85
2017-06-11T09:15:55.974Z,29.85
2017-06-11T09:17:06.331Z,29.95
2017-06-11T09:18:16.728Z,29.76
2017-06-11T09:19:26.495Z,29.88
2017-06-11T09:20:36.868Z,29.94
2017-06-11T09:21:47.209Z,30.07
2017-06-11T09:22:57.559Z,29.98
2017-06-11T09:24:07.967Z,30.19
2017-06-11T09:25:18.016Z,30.32
2017-06-11T09:26:28.369Z,30.49
2017-06-11T09:27:38.746Z,30.51
2017-06-11T09:28:49.101Z,30.63
2017-06-11T09:29:59.762Z,30.69
2017-06-11T09:31:09.796Z,30.59
2017-06-11T09:32:20.191Z,30.57
2017-06-11T09:33:30.589Z,30.59
2017-06-11T09:34:40.939Z,30.59
2017-06-11T09:35:51.347Z,30.6
2017-06-11T09:37:01.396Z,30.73
2017-06-11T09:38:11.443Z,30.75
2017-06-11T09:39:21.809Z,30.73
2017-06-11T09:40:31.850Z,30.78
2017-06-11T09:41:42.207Z,30.7
2017-06-11T09:42:52.595Z,30.62
2017-06-11T09:44:02.937Z,30.45
2017-06-11T09:45:13.292Z,30.71
2017-06-11T09:46:23.669Z,30.71
2017-06-11T09:47:34.074Z,30.86
2017-06-11T09:48:44.122Z,30.97
2017-06-11T09:49:54.178Z,30.73
2017-06-11T09:51:04.218Z,30.18
2017-06-11T09:52:14.261Z,30.18
2017-06-11T09:53:24.364Z,30.22
2017-06-11T09:54:34.726Z,29.91
2017-06-11T09:55:44.771Z,30.09
2017-06-11T09:56:54.807Z,30.49
2017-06-11T09:58:05.170Z,30.67
2017-06-11T09:59:15.587Z,30.81
2017-06-11T10:00:25.332Z,30.99
2017-06-11T10:01:35.686Z,31.19
2017-06-11T10:02:46.052Z,31.34
2017-06-11T10:03:56.413Z,31.43
2017-06-11T10:05:06.202Z,31.44
2017-06-11T10:06:15.938Z,31.59
2017-06-11T10:07:26.297Z,31.75
2017-06-11T10:08:36.347Z,31.81
2017-06-11T10:09:46.712Z,31.94
2017-06-11T10:11:11.711Z,32.06
2017-06-11T10:12:22.064Z,32.31
2017-06-11T10:13:32.123Z,32.47
2017-06-11T10:14:42.468Z,32.56
2017-06-11T10:15:52.837Z,32.72
2017-06-11T10:17:03.190Z,32.74
2017-06-11T10:18:13.572Z,32.39
2017-06-11T10:19:23.638Z,31.9
2017-06-11T10:20:33.683Z,31.44
2017-06-11T10:21:44.083Z,30.96
2017-06-11T10:22:54.490Z,31.18
2017-06-11T10:24:04.842Z,31.43
2017-06-11T10:25:15.221Z,31.44
2017-06-11T10:26:25.595Z,31.45
2017-06-11T10:27:35.958Z,31.47
2017-06-11T10:28:46.313Z,31.63
2017-06-11T10:29:56.054Z,31.74
2017-06-11T10:31:05.804Z,31.77
2017-06-11T10:32:16.180Z,31.97
2017-06-11T10:33:26.535Z,32.13
2017-06-11T10:34:36.882Z,32.13
2017-06-11T10:35:47.247Z,32.16
2017-06-11T10:36:57.631Z,32.13
2017-06-11T10:38:08.010Z,32.16
2017-06-11T10:39:18.054Z,32.12
2017-06-11T10:40:28.455Z,32.15
2017-06-11T10:41:38.832Z,32.3
2017-06-11T10:42:49.189Z,32.32
2017-06-11T10:43:58.940Z,32.39
2017-06-11T10:45:08.984Z,32.53
2017-06-11T10:46:19.390Z,32.61
2017-06-11T10:47:29.789Z,32.47
2017-06-11T10:48:39.848Z,32.46
2017-06-11T10:49:49.909Z,32.24
2017-06-11T10:51:00.272Z,32.16
2017-06-11T10:52:10.673Z,32.12
2017-06-11T10:53:20.715Z,32.03
2017-06-11T10:54:31.067Z,31.91
2017-06-11T10:55:41.476Z,31.82
2017-06-11T10:56:51.537Z,31.8
2017-06-11T10:58:01.965Z,31.77
2017-06-11T10:59:12.364Z,31.8
2017-06-11T11:00:22.736Z,31.9
2017-06-11T11:01:33.097Z,31.86
2017-06-11T11:02:43.463Z,31.87
2017-06-11T11:03:53.881Z,31.97
2017-06-11T11:05:03.938Z,32.03
2017-06-11T11:06:14.298Z,32.13
2017-06-11T11:07:24.665Z,32.08
2017-06-11T11:08:35.022Z,32.09
2017-06-11T11:09:44.758Z,32.08
2017-06-11T11:10:54.814Z,32.06
2017-06-11T11:12:05.183Z,32.01
2017-06-11T11:13:14.940Z,32.01
2017-06-11T11:14:24.996Z,32.05
2017-06-11T11:15:35.405Z,32.01
2017-06-11T11:16:45.756Z,32.08
2017-06-11T11:17:55.824Z,32.06
2017-06-11T11:19:06.194Z,31.95
2017-06-11T11:20:16.555Z,32.01
2017-06-11T11:21:26.965Z,32.09
2017-06-11T11:22:37.024Z,32.06
2017-06-11T11:23:47.381Z,32.1
2017-06-11T11:24:57.080Z,32.08
2017-06-11T11:26:07.445Z,32.12
2017-06-11T11:27:17.531Z,32.13
2017-06-11T11:28:26.960Z,32.1
2017-06-11T11:29:37.307Z,32.12
2017-06-11T11:30:47.348Z,32.15
2017-06-11T11:31:57.408Z,32.28
2017-06-11T11:33:07.539Z,32.3
2017-06-11T11:34:17.901Z,32.35
2017-06-11T11:35:28.265Z,32.34
2017-06-11T11:36:38.025Z,32.38
2017-06-11T11:37:47.770Z,32.35
2017-06-11T11:38:57.870Z,32.39
2017-06-11T11:40:08.220Z,32.34
2017-06-11T11:41:18.577Z,32.25
2017-06-11T11:42:28.623Z,32.15
2017-06-11T11:43:39.037Z,32.09
2017-06-11T11:44:49.132Z,32.1
2017-06-11T11:45:59.199Z,32.01
2017-06-11T11:47:09.576Z,32.08
2017-06-11T11:48:19.928Z,32.01
2017-06-11T11:49:30.281Z,32.1
2017-06-11T11:50:40.682Z,32.01
2017-06-11T11:51:50.714Z,32.03
2017-06-11T11:53:01.072Z,32.05
2017-06-11T11:54:11.103Z,32.12
2017-06-11T11:55:21.479Z,32.1
2017-06-11T11:56:31.516Z,32.15
2017-06-11T11:57:41.573Z,32.28
2017-06-11T11:58:51.632Z,32.27
2017-06-11T12:00:01.994Z,32.38
2017-06-11T12:01:12.031Z,32.52
2017-06-11T12:02:22.434Z,32.49
2017-06-11T12:03:32.783Z,32.57
2017-06-11T12:04:43.142Z,32.56
2017-06-11T12:05:53.501Z,32.54
2017-06-11T12:07:03.856Z,32.61
2017-06-11T12:08:13.945Z,32.61
2017-06-11T12:09:23.983Z,32.52
2017-06-11T12:10:34.022Z,32.56
2017-06-11T12:11:44.444Z,32.47
2017-06-11T12:12:54.806Z,32.49
2017-06-11T12:14:04.903Z,32.52
2017-06-11T12:15:14.946Z,32.5
2017-06-11T12:16:24.987Z,32.43
2017-06-11T12:17:35.028Z,32.5
2017-06-11T12:18:45.077Z,32.5
2017-06-11T12:19:55.486Z,32.46
2017-06-11T12:21:05.547Z,32.38
2017-06-11T12:22:15.906Z,32.38
2017-06-11T12:23:26.267Z,32.5
2017-06-11T12:24:36.623Z,32.42
2017-06-11T12:25:46.660Z,32.35
2017-06-11T12:26:57.035Z,32.34
2017-06-11T12:28:07.079Z,32.46
2017-06-11T12:29:17.437Z,32.38
2017-06-11T12:30:27.794Z,32.38
2017-06-11T12:31:38.224Z,32.24
2017-06-11T12:32:48.591Z,32.32
2017-06-11T12:33:58.311Z,32.27
2017-06-11T12:35:08.686Z,32.2
2017-06-11T12:36:19.050Z,32.32
2017-06-11T12:37:29.463Z,32.28
2017-06-11T12:38:39.527Z,32.34
2017-06-11T12:39:49.905Z,32.42
2017-06-11T12:41:00.254Z,32.35
2017-06-11T12:42:10.619Z,32.27
2017-06-11T12:43:21.035Z,32.17
2017-06-11T12:44:31.387Z,32.2
2017-06-11T12:45:41.805Z,32.15
2017-06-11T12:46:52.231Z,32.17
2017-06-11T12:48:02.580Z,32.17
2017-06-11T12:49:13.000Z,32.25
2017-06-11T12:50:23.370Z,32.12
2017-06-11T12:51:33.729Z,32.27
2017-06-11T12:52:44.077Z,32.28
2017-06-11T12:53:54.130Z,32.27
2017-06-11T12:55:04.540Z,32.19
2017-06-11T12:56:14.902Z,32.37
2017-06-11T12:57:25.276Z,32.37
2017-06-11T12:58:35.641Z,32.38
2017-06-11T12:59:45.996Z,32.34
2017-06-11T13:00:55.740Z,32.38
2017-06-11T13:02:06.105Z,32.46
2017-06-11T13:03:16.472Z,32.46
2017-06-11T13:04:26.844Z,32.53
2017-06-11T13:05:37.225Z,32.72
2017-06-11T13:06:47.638Z,32.69
2017-06-11T13:07:57.681Z,32.67
2017-06-11T13:09:08.036Z,32.76
2017-06-11T13:10:17.815Z,32.74
2017-06-11T13:11:28.176Z,32.8
2017-06-11T13:12:38.595Z,32.79
2017-06-11T13:13:48.974Z,32.86
2017-06-11T13:14:59.010Z,32.8
2017-06-11T13:16:09.057Z,32.84
2017-06-11T13:17:19.439Z,32.84
2017-06-11T13:18:29.476Z,32.75
2017-06-11T13:19:39.830Z,32.86
2017-06-11T13:20:49.872Z,32.87
2017-06-11T13:22:00.227Z,32.9
2017-06-11T13:23:10.595Z,33.02
2017-06-11T13:24:20.685Z,33.01
2017-06-11T13:25:30.713Z,32.98
2017-06-11T13:26:41.074Z,33.03
2017-06-11T13:27:51.484Z,32.99
2017-06-11T13:29:01.872Z,33.05
2017-06-11T13:30:11.932Z,33.05
2017-06-11T13:31:21.999Z,33.09
2017-06-11T13:32:32.357Z,33.03
2017-06-11T13:33:42.714Z,33.06
2017-06-11T13:34:53.095Z,33.03
2017-06-11T13:36:03.483Z,32.98
2017-06-11T13:37:13.836Z,33.01
2017-06-11T13:38:24.201Z,32.99
2017-06-11T13:39:33.948Z,33.09
2017-06-11T13:40:44.308Z,33.09
2017-06-11T13:41:54.386Z,33.17
2017-06-11T13:43:04.736Z,33.11
2017-06-11T13:44:15.115Z,32.91
2017-06-11T13:45:25.187Z,32.84
2017-06-11T13:46:35.571Z,32.87
2017-06-11T13:47:45.983Z,32.9
2017-06-11T13:48:56.356Z,32.86
2017-06-11T13:50:06.745Z,32.81
2017-06-11T13:51:17.153Z,32.94
2017-06-11T13:52:27.548Z,32.96
2017-06-11T13:53:37.968Z,32.91
2017-06-11T13:54:48.355Z,33.03
2017-06-11T13:55:58.117Z,33.06
2017-06-11T13:57:08.505Z,33.13
2017-06-11T13:58:18.870Z,33.12
2017-06-11T13:59:29.309Z,33.2
2017-06-11T14:00:39.386Z,33.08
2017-06-11T14:01:49.745Z,33.01
2017-06-11T14:03:00.118Z,32.89
2017-06-11T14:04:10.499Z,32.87
2017-06-11T14:05:20.611Z,32.91
2017-06-11T14:06:30.690Z,32.94
2017-06-11T14:07:41.084Z,32.98
2017-06-11T14:08:51.475Z,32.99
2017-06-11T14:10:01.529Z,33.02
2017-06-11T14:11:11.956Z,33.05
2017-06-11T14:12:22.314Z,33.12
2017-06-11T14:13:32.679Z,33.08
2017-06-11T14:14:43.089Z,33.16
2017-06-11T14:15:53.471Z,33.13
2017-06-11T14:17:03.855Z,33.12
2017-06-11T14:18:14.225Z,32.99
2017-06-11T14:19:24.283Z,32.93
2017-06-11T14:20:34.325Z,32.81
2017-06-11T14:21:44.712Z,32.89
2017-06-11T14:22:55.094Z,32.81
2017-06-11T14:24:05.141Z,32.69
2017-06-11T14:25:15.503Z,32.5
2017-06-11T14:26:25.565Z,32.42
2017-06-11T14:27:35.937Z,32.25
2017-06-11T14:28:46.302Z,32.23
2017-06-11T14:29:56.672Z,32.23
2017-06-11T14:31:07.036Z,32.12
2017-06-11T14:32:17.398Z,32.09
2017-06-11T14:33:27.792Z,32
2017-06-11T14:34:38.140Z,31.97
2017-06-11T14:35:48.523Z,32.08
2017-06-11T14:36:58.952Z,32
2017-06-11T14:38:09.347Z,32.05
2017-06-11T14:39:19.729Z,32.03
2017-06-11T14:40:29.775Z,32.06
2017-06-11T14:41:39.867Z,32.15
2017-06-11T14:42:49.623Z,32.16
2017-06-11T14:43:59.658Z,32.25
2017-06-11T14:45:10.050Z,32.28
2017-06-11T14:46:20.494Z,32.27
2017-06-11T14:47:30.856Z,32.3
2017-06-11T14:48:40.897Z,32.15
2017-06-11T14:49:50.948Z,32.08
2017-06-11T14:51:01.315Z,31.86
2017-06-11T14:52:11.181Z,31.71
2017-06-11T14:53:21.518Z,31.68
2017-06-11T14:54:31.580Z,31.7
2017-06-11T14:55:41.942Z,31.74
2017-06-11T14:56:51.985Z,31.86
2017-06-11T14:58:02.118Z,31.91
2017-06-11T14:59:12.476Z,32
2017-06-11T15:00:22.823Z,32.08
2017-06-11T15:01:33.184Z,32.16
2017-06-11T15:02:43.546Z,32.3
2017-06-11T15:03:53.962Z,32.2
2017-06-11T15:05:04.316Z,32.35
2017-06-11T15:06:14.668Z,32.52
2017-06-11T15:07:25.021Z,32.45
2017-06-11T15:08:35.385Z,32.52
2017-06-11T15:09:45.816Z,32.62
2017-06-11T15:10:56.229Z,32.61
2017-06-11T15:12:06.596Z,32.74
2017-06-11T15:13:16.010Z,32.69
2017-06-11T15:14:26.382Z,32.47
2017-06-11T15:15:36.800Z,32.53
2017-06-11T15:16:47.191Z,32.5
2017-06-11T15:17:57.568Z,32.5
2017-06-11T15:19:07.610Z,32.5
2017-06-11T15:20:17.981Z,32.35
2017-06-11T15:21:28.354Z,32.35
2017-06-11T15:22:38.400Z,32.38
2017-06-11T15:23:48.767Z,32.35
2017-06-11T15:24:59.132Z,32.27
2017-06-11T15:26:09.501Z,32.24
2017-06-11T15:27:20.169Z,32.16
2017-06-11T15:28:30.517Z,32.28
2017-06-11T15:29:40.588Z,32.28
2017-06-11T15:30:50.963Z,32.23
2017-06-11T15:32:01.336Z,32.2
2017-06-11T15:33:11.748Z,32.27
2017-06-11T15:34:22.124Z,32.27
2017-06-11T15:35:32.526Z,32.3
2017-06-11T15:36:42.887Z,32.24
2017-06-11T15:37:53.256Z,32.13
2017-06-11T15:39:03.370Z,32.06